Centreville, Illinois
Current Conditions -  °F | °C
As of 8:11 AM on Friday 31 Oct 2014 (Local Time) from KCPS Reporting Station
Overcast Overcast  
Wind Chill: 39°   Ceiling: 4000
Heat Index: 47°   Visibility: 10mi
Dew Point: 34°   Wind: 22mph
Humidity: 61%   Direction: 340°NNW
Pressure: 30.2"   Gusts: 37mph
Location:  38.6057°N, 90.1182°W
Report Text: KCPS 311311Z 34019G32KT 10SM FEW024 BKN040 OVC048 08/01 A3020 RMK AO2 PK WND 34032/1303 T00830011
Loading
Personal Weather Stations






























Interactive Weather Map
Tropical Storm Tracking
New forecast layout! Learn more

10-Day Weather Forecast

Advertisements
Track Severe Weather on mobile